sensor_id;sensor_type;location;lat;lon;timestamp;P1;durP1;ratioP1;P2;durP2;ratioP2
13793;SDS011;31160;49.500;7.772;2022-12-07T00:00:15;8.67;;;5.83;;
13793;SDS011;31160;49.500;7.772;2022-12-07T00:02:42;9.73;;;5.83;;
13793;SDS011;31160;49.500;7.772;2022-12-07T00:05:08;10.27;;;6.20;;
13793;SDS011;31160;49.500;7.772;2022-12-07T00:07:35;9.50;;;5.37;;
13793;SDS011;31160;49.500;7.772;2022-12-07T00:10:02;8.47;;;5.97;;
13793;SDS011;31160;49.500;7.772;2022-12-07T00:12:29;9.73;;;6.50;;
13793;SDS011;31160;49.500;7.772;2022-12-07T00:14:56;9.70;;;6.13;;
13793;SDS011;31160;49.500;7.772;2022-12-07T00:17:22;10.27;;;6.53;;
13793;SDS011;31160;49.500;7.772;2022-12-07T00:19:49;10.27;;;6.73;;
13793;SDS011;31160;49.500;7.772;2022-12-07T00:22:16;10.13;;;6.30;;
13793;SDS011;31160;49.500;7.772;2022-12-07T00:24:42;7.10;;;5.30;;
13793;SDS011;31160;49.500;7.772;2022-12-07T00:27:09;8.20;;;5.40;;
13793;SDS011;31160;49.500;7.772;2022-12-07T00:29:35;8.97;;;5.90;;
13793;SDS011;31160;49.500;7.772;2022-12-07T00:32:03;6.90;;;5.27;;
13793;SDS011;31160;49.500;7.772;2022-12-07T00:34:30;7.40;;;5.17;;
13793;SDS011;31160;49.500;7.772;2022-12-07T00:36:56;8.90;;;5.50;;
13793;SDS011;31160;49.500;7.772;2022-12-07T00:39:23;10.63;;;5.93;;
13793;SDS011;31160;49.500;7.772;2022-12-07T00:41:50;9.27;;;6.30;;
13793;SDS011;31160;49.500;7.772;2022-12-07T00:44:16;8.33;;;5.67;;
13793;SDS011;31160;49.500;7.772;2022-12-07T00:46:43;8.50;;;4.93;;
13793;SDS011;31160;49.500;7.772;2022-12-07T00:49:11;7.60;;;5.70;;
13793;SDS011;31160;49.500;7.772;2022-12-07T00:51:38;9.33;;;5.90;;
13793;SDS011;31160;49.500;7.772;2022-12-07T00:54:04;9.53;;;6.23;;
13793;SDS011;31160;49.500;7.772;2022-12-07T00:56:31;10.57;;;6.30;;
13793;SDS011;31160;49.500;7.772;2022-12-07T00:58:59;9.60;;;6.53;;
13793;SDS011;31160;49.500;7.772;2022-12-07T01:01:28;15.00;;;7.17;;
13793;SDS011;31160;49.500;7.772;2022-12-07T01:03:57;10.17;;;7.13;;
13793;SDS011;31160;49.500;7.772;2022-12-07T01:06:24;11.87;;;6.17;;
13793;SDS011;31160;49.500;7.772;2022-12-07T01:08:51;8.57;;;6.07;;
13793;SDS011;31160;49.500;7.772;2022-12-07T01:11:20;9.40;;;5.77;;
13793;SDS011;31160;49.500;7.772;2022-12-07T01:13:49;9.33;;;5.93;;
13793;SDS011;31160;49.500;7.772;2022-12-07T01:16:17;8.47;;;5.73;;
13793;SDS011;31160;49.500;7.772;2022-12-07T01:18:46;9.47;;;5.40;;
13793;SDS011;31160;49.500;7.772;2022-12-07T01:21:16;9.73;;;5.80;;
13793;SDS011;31160;49.500;7.772;2022-12-07T01:23:44;9.97;;;6.50;;
13793;SDS011;31160;49.500;7.772;2022-12-07T01:26:11;7.43;;;5.87;;
13793;SDS011;31160;49.500;7.772;2022-12-07T01:28:39;12.47;;;6.20;;
13793;SDS011;31160;49.500;7.772;2022-12-07T01:31:08;10.80;;;6.90;;
13793;SDS011;31160;49.500;7.772;2022-12-07T01:33:38;8.63;;;6.30;;
13793;SDS011;31160;49.500;7.772;2022-12-07T01:38:42;9.37;;;6.00;;
13793;SDS011;31160;49.500;7.772;2022-12-07T01:41:10;9.40;;;5.47;;
13793;SDS011;31160;49.500;7.772;2022-12-07T01:44:07;16.47;;;5.97;;
13793;SDS011;31160;49.500;7.772;2022-12-07T01:46:35;8.93;;;6.07;;
13793;SDS011;31160;49.500;7.772;2022-12-07T01:49:06;10.20;;;6.47;;
13793;SDS011;31160;49.500;7.772;2022-12-07T01:51:36;13.93;;;5.87;;
13793;SDS011;31160;49.500;7.772;2022-12-07T01:54:06;9.60;;;5.80;;
13793;SDS011;31160;49.500;7.772;2022-12-07T01:56:34;9.57;;;6.60;;
13793;SDS011;31160;49.500;7.772;2022-12-07T01:59:02;9.80;;;6.20;;
13793;SDS011;31160;49.500;7.772;2022-12-07T02:01:28;8.13;;;5.93;;
13793;SDS011;31160;49.500;7.772;2022-12-07T02:03:55;9.17;;;6.37;;
13793;SDS011;31160;49.500;7.772;2022-12-07T02:06:23;9.83;;;5.97;;
13793;SDS011;31160;49.500;7.772;2022-12-07T02:08:52;9.20;;;5.97;;
13793;SDS011;31160;49.500;7.772;2022-12-07T02:11:19;8.07;;;5.67;;
13793;SDS011;31160;49.500;7.772;2022-12-07T02:13:47;7.60;;;5.33;;
13793;SDS011;31160;49.500;7.772;2022-12-07T02:16:21;8.83;;;5.77;;
13793;SDS011;31160;49.500;7.772;2022-12-07T02:24:42;11.87;;;6.90;;
13793;SDS011;31160;49.500;7.772;2022-12-07T02:30:20;10.40;;;6.37;;
13793;SDS011;31160;49.500;7.772;2022-12-07T02:33:07;7.10;;;5.73;;
13793;SDS011;31160;49.500;7.772;2022-12-07T02:35:53;7.73;;;5.37;;
13793;SDS011;31160;49.500;7.772;2022-12-07T02:41:01;9.17;;;6.13;;
13793;SDS011;31160;49.500;7.772;2022-12-07T02:43:41;8.93;;;5.77;;
13793;SDS011;31160;49.500;7.772;2022-12-07T02:46:16;9.07;;;5.47;;
13793;SDS011;31160;49.500;7.772;2022-12-07T02:48:46;9.57;;;5.90;;
13793;SDS011;31160;49.500;7.772;2022-12-07T02:51:17;15.00;;;5.97;;
13793;SDS011;31160;49.500;7.772;2022-12-07T02:53:44;11.77;;;6.77;;
13793;SDS011;31160;49.500;7.772;2022-12-07T03:01:46;9.43;;;5.90;;
13793;SDS011;31160;49.500;7.772;2022-12-07T03:07:04;8.43;;;5.63;;
13793;SDS011;31160;49.500;7.772;2022-12-07T03:09:45;8.43;;;6.07;;
13793;SDS011;31160;49.500;7.772;2022-12-07T03:12:28;9.73;;;5.97;;
13793;SDS011;31160;49.500;7.772;2022-12-07T03:15:10;8.77;;;6.03;;
13793;SDS011;31160;49.500;7.772;2022-12-07T03:17:41;10.23;;;6.03;;
13793;SDS011;31160;49.500;7.772;2022-12-07T03:20:14;7.93;;;6.07;;
13793;SDS011;31160;49.500;7.772;2022-12-07T03:22:43;9.80;;;6.00;;
13793;SDS011;31160;49.500;7.772;2022-12-07T03:25:12;8.57;;;6.03;;
13793;SDS011;31160;49.500;7.772;2022-12-07T03:27:43;10.07;;;6.37;;
13793;SDS011;31160;49.500;7.772;2022-12-07T03:35:36;10.63;;;5.90;;
13793;SDS011;31160;49.500;7.772;2022-12-07T03:38:19;10.30;;;6.20;;
13793;SDS011;31160;49.500;7.772;2022-12-07T03:40:55;7.90;;;5.70;;
13793;SDS011;31160;49.500;7.772;2022-12-07T03:43:45;9.43;;;6.63;;
13793;SDS011;31160;49.500;7.772;2022-12-07T03:46:56;9.00;;;6.57;;
13793;SDS011;31160;49.500;7.772;2022-12-07T03:49:25;9.83;;;6.27;;
13793;SDS011;31160;49.500;7.772;2022-12-07T03:52:08;11.93;;;7.20;;
13793;SDS011;31160;49.500;7.772;2022-12-07T03:54:39;9.30;;;6.20;;
13793;SDS011;31160;49.500;7.772;2022-12-07T03:57:10;9.83;;;5.97;;
13793;SDS011;31160;49.500;7.772;2022-12-07T03:59:38;9.47;;;6.00;;
13793;SDS011;31160;49.500;7.772;2022-12-07T04:02:06;9.30;;;6.17;;
13793;SDS011;31160;49.500;7.772;2022-12-07T04:04:34;11.83;;;6.30;;
13793;SDS011;31160;49.500;7.772;2022-12-07T04:07:00;8.57;;;6.10;;
13793;SDS011;31160;49.500;7.772;2022-12-07T04:09:27;9.27;;;5.60;;
13793;SDS011;31160;49.500;7.772;2022-12-07T04:11:54;10.60;;;6.63;;
13793;SDS011;31160;49.500;7.772;2022-12-07T04:14:21;8.70;;;6.10;;
13793;SDS011;31160;49.500;7.772;2022-12-07T04:16:49;9.47;;;6.80;;
13793;SDS011;31160;49.500;7.772;2022-12-07T04:19:18;9.63;;;6.37;;
13793;SDS011;31160;49.500;7.772;2022-12-07T04:21:46;10.40;;;6.57;;
13793;SDS011;31160;49.500;7.772;2022-12-07T04:24:14;8.97;;;6.47;;
13793;SDS011;31160;49.500;7.772;2022-12-07T04:26:41;10.70;;;6.70;;
13793;SDS011;31160;49.500;7.772;2022-12-07T04:29:09;10.97;;;6.37;;
13793;SDS011;31160;49.500;7.772;2022-12-07T04:31:36;8.20;;;5.90;;
13793;SDS011;31160;49.500;7.772;2022-12-07T04:34:04;9.70;;;6.47;;
13793;SDS011;31160;49.500;7.772;2022-12-07T04:36:31;10.60;;;6.30;;
13793;SDS011;31160;49.500;7.772;2022-12-07T04:38:58;8.17;;;6.43;;
13793;SDS011;31160;49.500;7.772;2022-12-07T04:41:25;9.90;;;6.40;;
13793;SDS011;31160;49.500;7.772;2022-12-07T04:43:55;11.43;;;7.00;;
13793;SDS011;31160;49.500;7.772;2022-12-07T04:46:23;9.90;;;6.50;;
13793;SDS011;31160;49.500;7.772;2022-12-07T04:48:51;9.63;;;6.87;;
13793;SDS011;31160;49.500;7.772;2022-12-07T04:51:20;10.43;;;6.57;;
13793;SDS011;31160;49.500;7.772;2022-12-07T04:53:51;9.57;;;6.37;;
13793;SDS011;31160;49.500;7.772;2022-12-07T04:56:18;12.07;;;6.87;;
13793;SDS011;31160;49.500;7.772;2022-12-07T04:58:46;12.53;;;7.17;;
13793;SDS011;31160;49.500;7.772;2022-12-07T05:01:15;9.13;;;6.23;;
13793;SDS011;31160;49.500;7.772;2022-12-07T05:03:43;10.57;;;6.60;;
13793;SDS011;31160;49.500;7.772;2022-12-07T05:06:10;8.57;;;6.57;;
13793;SDS011;31160;49.500;7.772;2022-12-07T05:08:39;9.30;;;6.57;;
13793;SDS011;31160;49.500;7.772;2022-12-07T05:11:07;11.80;;;6.70;;
13793;SDS011;31160;49.500;7.772;2022-12-07T05:13:35;11.13;;;6.33;;
13793;SDS011;31160;49.500;7.772;2022-12-07T05:16:02;8.97;;;6.67;;
13793;SDS011;31160;49.500;7.772;2022-12-07T05:18:29;9.50;;;6.77;;
13793;SDS011;31160;49.500;7.772;2022-12-07T05:20:56;13.33;;;7.30;;
13793;SDS011;31160;49.500;7.772;2022-12-07T05:23:22;9.83;;;6.73;;
13793;SDS011;31160;49.500;7.772;2022-12-07T05:25:49;9.37;;;6.80;;
13793;SDS011;31160;49.500;7.772;2022-12-07T05:28:16;9.77;;;6.70;;
13793;SDS011;31160;49.500;7.772;2022-12-07T05:30:42;9.53;;;6.57;;
13793;SDS011;31160;49.500;7.772;2022-12-07T05:33:09;10.33;;;7.10;;
13793;SDS011;31160;49.500;7.772;2022-12-07T05:35:36;11.10;;;6.87;;
13793;SDS011;31160;49.500;7.772;2022-12-07T05:38:03;10.67;;;6.73;;
13793;SDS011;31160;49.500;7.772;2022-12-07T05:40:30;10.10;;;6.93;;
13793;SDS011;31160;49.500;7.772;2022-12-07T05:42:57;15.63;;;6.87;;
13793;SDS011;31160;49.500;7.772;2022-12-07T05:45:30;8.17;;;5.90;;
13793;SDS011;31160;49.500;7.772;2022-12-07T05:47:57;9.23;;;6.47;;
13793;SDS011;31160;49.500;7.772;2022-12-07T05:50:23;8.73;;;6.17;;
13793;SDS011;31160;49.500;7.772;2022-12-07T05:52:59;10.43;;;6.93;;
13793;SDS011;31160;49.500;7.772;2022-12-07T05:55:26;8.83;;;6.43;;
13793;SDS011;31160;49.500;7.772;2022-12-07T05:57:52;11.20;;;6.87;;
13793;SDS011;31160;49.500;7.772;2022-12-07T06:00:38;11.80;;;6.90;;
13793;SDS011;31160;49.500;7.772;2022-12-07T06:03:05;10.13;;;6.77;;
13793;SDS011;31160;49.500;7.772;2022-12-07T06:05:31;12.97;;;7.23;;
13793;SDS011;31160;49.500;7.772;2022-12-07T06:07:58;11.23;;;7.57;;
13793;SDS011;31160;49.500;7.772;2022-12-07T06:10:31;10.63;;;7.00;;
13793;SDS011;31160;49.500;7.772;2022-12-07T06:12:58;12.40;;;7.40;;
13793;SDS011;31160;49.500;7.772;2022-12-07T06:15:24;12.13;;;7.27;;
13793;SDS011;31160;49.500;7.772;2022-12-07T06:17:51;13.20;;;7.97;;
13793;SDS011;31160;49.500;7.772;2022-12-07T06:20:18;10.27;;;6.97;;
13793;SDS011;31160;49.500;7.772;2022-12-07T06:22:45;12.07;;;7.37;;
13793;SDS011;31160;49.500;7.772;2022-12-07T06:25:11;10.23;;;7.57;;
13793;SDS011;31160;49.500;7.772;2022-12-07T06:27:38;10.93;;;7.63;;
13793;SDS011;31160;49.500;7.772;2022-12-07T06:30:05;12.60;;;7.50;;
13793;SDS011;31160;49.500;7.772;2022-12-07T06:32:35;10.97;;;7.20;;
13793;SDS011;31160;49.500;7.772;2022-12-07T06:35:03;13.63;;;8.17;;
13793;SDS011;31160;49.500;7.772;2022-12-07T06:37:31;13.07;;;8.10;;
13793;SDS011;31160;49.500;7.772;2022-12-07T06:39:57;11.33;;;7.90;;
13793;SDS011;31160;49.500;7.772;2022-12-07T06:42:24;13.10;;;9.03;;
13793;SDS011;31160;49.500;7.772;2022-12-07T06:44:51;11.53;;;7.50;;
13793;SDS011;31160;49.500;7.772;2022-12-07T06:47:18;13.23;;;8.77;;
13793;SDS011;31160;49.500;7.772;2022-12-07T06:50:05;18.43;;;9.87;;
13793;SDS011;31160;49.500;7.772;2022-12-07T06:52:33;15.90;;;9.40;;
13793;SDS011;31160;49.500;7.772;2022-12-07T06:55:00;12.53;;;8.87;;
13793;SDS011;31160;49.500;7.772;2022-12-07T06:57:27;15.43;;;9.20;;
13793;SDS011;31160;49.500;7.772;2022-12-07T06:59:54;13.17;;;8.57;;
13793;SDS011;31160;49.500;7.772;2022-12-07T07:02:20;15.13;;;8.87;;
13793;SDS011;31160;49.500;7.772;2022-12-07T07:04:47;13.97;;;8.93;;
13793;SDS011;31160;49.500;7.772;2022-12-07T07:07:14;14.50;;;9.57;;
13793;SDS011;31160;49.500;7.772;2022-12-07T07:09:41;14.43;;;8.93;;
13793;SDS011;31160;49.500;7.772;2022-12-07T07:12:07;12.77;;;8.50;;
13793;SDS011;31160;49.500;7.772;2022-12-07T07:14:34;14.13;;;9.70;;
13793;SDS011;31160;49.500;7.772;2022-12-07T07:17:01;14.30;;;9.53;;
13793;SDS011;31160;49.500;7.772;2022-12-07T07:19:28;12.83;;;8.80;;
13793;SDS011;31160;49.500;7.772;2022-12-07T07:21:55;19.90;;;9.40;;
13793;SDS011;31160;49.500;7.772;2022-12-07T07:24:21;14.13;;;9.43;;
13793;SDS011;31160;49.500;7.772;2022-12-07T07:26:48;15.77;;;10.20;;
13793;SDS011;31160;49.500;7.772;2022-12-07T07:29:15;14.90;;;9.47;;
13793;SDS011;31160;49.500;7.772;2022-12-07T07:31:41;13.93;;;9.27;;
13793;SDS011;31160;49.500;7.772;2022-12-07T07:34:08;14.80;;;9.53;;
13793;SDS011;31160;49.500;7.772;2022-12-07T07:36:35;15.60;;;10.03;;
13793;SDS011;31160;49.500;7.772;2022-12-07T07:39:02;14.83;;;9.70;;
13793;SDS011;31160;49.500;7.772;2022-12-07T07:41:29;14.60;;;8.93;;
13793;SDS011;31160;49.500;7.772;2022-12-07T07:43:55;19.10;;;11.97;;
13793;SDS011;31160;49.500;7.772;2022-12-07T07:46:22;13.43;;;8.97;;
13793;SDS011;31160;49.500;7.772;2022-12-07T07:48:49;13.33;;;8.90;;
13793;SDS011;31160;49.500;7.772;2022-12-07T07:51:16;15.07;;;9.27;;
13793;SDS011;31160;49.500;7.772;2022-12-07T07:53:42;16.57;;;9.27;;
13793;SDS011;31160;49.500;7.772;2022-12-07T07:56:09;12.70;;;9.27;;
13793;SDS011;31160;49.500;7.772;2022-12-07T07:58:36;15.07;;;9.50;;
13793;SDS011;31160;49.500;7.772;2022-12-07T08:01:03;17.33;;;9.47;;
13793;SDS011;31160;49.500;7.772;2022-12-07T08:03:34;14.00;;;9.90;;
13793;SDS011;31160;49.500;7.772;2022-12-07T08:06:02;14.47;;;9.60;;
13793;SDS011;31160;49.500;7.772;2022-12-07T08:08:29;15.10;;;9.43;;
13793;SDS011;31160;49.500;7.772;2022-12-07T08:10:56;14.80;;;9.57;;
13793;SDS011;31160;49.500;7.772;2022-12-07T08:13:26;14.70;;;9.37;;
13793;SDS011;31160;49.500;7.772;2022-12-07T08:15:57;14.43;;;9.27;;
13793;SDS011;31160;49.500;7.772;2022-12-07T08:18:24;15.50;;;9.73;;
13793;SDS011;31160;49.500;7.772;2022-12-07T08:20:51;17.07;;;9.83;;
13793;SDS011;31160;49.500;7.772;2022-12-07T08:23:17;17.43;;;10.40;;
13793;SDS011;31160;49.500;7.772;2022-12-07T08:25:44;17.90;;;9.97;;
13793;SDS011;31160;49.500;7.772;2022-12-07T08:28:11;15.27;;;10.00;;
13793;SDS011;31160;49.500;7.772;2022-12-07T08:30:37;16.47;;;9.87;;
13793;SDS011;31160;49.500;7.772;2022-12-07T08:33:04;16.77;;;9.87;;
13793;SDS011;31160;49.500;7.772;2022-12-07T08:35:32;15.00;;;9.50;;
13793;SDS011;31160;49.500;7.772;2022-12-07T08:38:00;16.73;;;9.83;;
13793;SDS011;31160;49.500;7.772;2022-12-07T08:40:28;15.93;;;10.20;;
13793;SDS011;31160;49.500;7.772;2022-12-07T08:42:55;15.70;;;10.40;;
13793;SDS011;31160;49.500;7.772;2022-12-07T08:45:22;23.47;;;13.63;;
13793;SDS011;31160;49.500;7.772;2022-12-07T08:47:57;15.30;;;10.17;;
13793;SDS011;31160;49.500;7.772;2022-12-07T08:50:31;16.73;;;10.27;;
13793;SDS011;31160;49.500;7.772;2022-12-07T08:52:58;16.83;;;10.03;;
13793;SDS011;31160;49.500;7.772;2022-12-07T08:55:27;17.70;;;10.50;;
13793;SDS011;31160;49.500;7.772;2022-12-07T08:57:54;14.30;;;9.83;;
13793;SDS011;31160;49.500;7.772;2022-12-07T09:00:21;15.07;;;10.23;;
13793;SDS011;31160;49.500;7.772;2022-12-07T09:02:48;17.33;;;10.10;;
13793;SDS011;31160;49.500;7.772;2022-12-07T09:05:15;18.67;;;11.03;;
13793;SDS011;31160;49.500;7.772;2022-12-07T09:07:46;17.63;;;9.90;;
13793;SDS011;31160;49.500;7.772;2022-12-07T09:10:15;14.33;;;9.40;;
13793;SDS011;31160;49.500;7.772;2022-12-07T09:12:42;15.10;;;9.23;;
13793;SDS011;31160;49.500;7.772;2022-12-07T09:15:09;14.67;;;10.03;;
13793;SDS011;31160;49.500;7.772;2022-12-07T09:17:35;13.13;;;9.50;;
13793;SDS011;31160;49.500;7.772;2022-12-07T09:20:04;12.20;;;8.83;;
13793;SDS011;31160;49.500;7.772;2022-12-07T09:22:31;15.07;;;10.27;;
13793;SDS011;31160;49.500;7.772;2022-12-07T09:24:58;17.07;;;10.00;;
13793;SDS011;31160;49.500;7.772;2022-12-07T09:27:25;16.60;;;9.87;;
13793;SDS011;31160;49.500;7.772;2022-12-07T09:29:53;16.77;;;9.93;;
13793;SDS011;31160;49.500;7.772;2022-12-07T09:32:20;20.83;;;9.47;;
13793;SDS011;31160;49.500;7.772;2022-12-07T09:34:47;14.03;;;9.77;;
13793;SDS011;31160;49.500;7.772;2022-12-07T09:37:13;17.53;;;10.23;;
13793;SDS011;31160;49.500;7.772;2022-12-07T09:39:40;13.73;;;8.77;;
13793;SDS011;31160;49.500;7.772;2022-12-07T09:45:06;20.23;;;10.67;;
13793;SDS011;31160;49.500;7.772;2022-12-07T09:47:38;18.60;;;10.80;;
13793;SDS011;31160;49.500;7.772;2022-12-07T09:50:06;16.33;;;10.20;;
13793;SDS011;31160;49.500;7.772;2022-12-07T09:52:39;16.10;;;9.77;;
13793;SDS011;31160;49.500;7.772;2022-12-07T09:55:13;14.10;;;9.60;;
13793;SDS011;31160;49.500;7.772;2022-12-07T09:57:42;17.33;;;9.90;;
13793;SDS011;31160;49.500;7.772;2022-12-07T10:00:14;14.50;;;8.97;;
13793;SDS011;31160;49.500;7.772;2022-12-07T10:02:44;18.47;;;10.20;;
13793;SDS011;31160;49.500;7.772;2022-12-07T10:05:14;17.10;;;8.97;;
13793;SDS011;31160;49.500;7.772;2022-12-07T10:07:49;14.90;;;9.30;;
13793;SDS011;31160;49.500;7.772;2022-12-07T10:10:28;11.83;;;8.73;;
13793;SDS011;31160;49.500;7.772;2022-12-07T10:13:04;14.20;;;9.40;;
13793;SDS011;31160;49.500;7.772;2022-12-07T10:15:44;14.50;;;9.20;;
13793;SDS011;31160;49.500;7.772;2022-12-07T10:21:02;17.63;;;9.43;;
13793;SDS011;31160;49.500;7.772;2022-12-07T10:23:34;17.23;;;9.27;;
13793;SDS011;31160;49.500;7.772;2022-12-07T10:26:21;13.47;;;9.30;;
13793;SDS011;31160;49.500;7.772;2022-12-07T10:29:15;15.80;;;10.40;;
13793;SDS011;31160;49.500;7.772;2022-12-07T10:31:43;16.10;;;10.03;;
13793;SDS011;31160;49.500;7.772;2022-12-07T10:34:20;13.23;;;8.53;;
13793;SDS011;31160;49.500;7.772;2022-12-07T10:39:50;13.57;;;8.67;;
13793;SDS011;31160;49.500;7.772;2022-12-07T10:44:50;11.23;;;8.13;;
13793;SDS011;31160;49.500;7.772;2022-12-07T10:47:45;16.20;;;8.40;;
13793;SDS011;31160;49.500;7.772;2022-12-07T11:07:10;13.20;;;8.53;;
13793;SDS011;31160;49.500;7.772;2022-12-07T11:15:41;10.23;;;7.30;;
13793;SDS011;31160;49.500;7.772;2022-12-07T11:18:48;10.53;;;6.00;;
13793;SDS011;31160;49.500;7.772;2022-12-07T11:24:02;9.70;;;6.60;;
13793;SDS011;31160;49.500;7.772;2022-12-07T11:29:38;10.37;;;6.50;;
13793;SDS011;31160;49.500;7.772;2022-12-07T11:37:42;35.63;;;20.83;;
13793;SDS011;31160;49.500;7.772;2022-12-07T11:43:13;9.87;;;4.73;;
13793;SDS011;31160;49.500;7.772;2022-12-07T11:46:03;7.83;;;4.30;;
13793;SDS011;31160;49.500;7.772;2022-12-07T11:48:38;7.87;;;5.23;;
13793;SDS011;31160;49.500;7.772;2022-12-07T11:51:12;7.03;;;5.03;;
13793;SDS011;31160;49.500;7.772;2022-12-07T11:53:40;7.87;;;5.70;;
13793;SDS011;31160;49.500;7.772;2022-12-07T11:56:12;14.60;;;5.73;;
13793;SDS011;31160;49.500;7.772;2022-12-07T12:03:54;10.07;;;6.20;;
13793;SDS011;31160;49.500;7.772;2022-12-07T12:06:22;8.33;;;5.77;;
13793;SDS011;31160;49.500;7.772;2022-12-07T12:09:36;8.23;;;5.57;;
13793;SDS011;31160;49.500;7.772;2022-12-07T12:20:39;12.23;;;5.37;;
13793;SDS011;31160;49.500;7.772;2022-12-07T12:23:17;10.23;;;5.07;;
13793;SDS011;31160;49.500;7.772;2022-12-07T12:25:49;8.00;;;4.73;;
13793;SDS011;31160;49.500;7.772;2022-12-07T12:28:29;7.47;;;5.17;;
13793;SDS011;31160;49.500;7.772;2022-12-07T12:33:47;7.90;;;4.83;;
13793;SDS011;31160;49.500;7.772;2022-12-07T12:46:51;6.93;;;4.70;;
13793;SDS011;31160;49.500;7.772;2022-12-07T12:51:58;8.53;;;4.27;;
13793;SDS011;31160;49.500;7.772;2022-12-07T12:55:11;6.97;;;4.23;;
13793;SDS011;31160;49.500;7.772;2022-12-07T12:57:40;9.87;;;5.17;;
13793;SDS011;31160;49.500;7.772;2022-12-07T13:00:20;7.10;;;4.03;;
13793;SDS011;31160;49.500;7.772;2022-12-07T13:02:58;7.70;;;4.43;;
13793;SDS011;31160;49.500;7.772;2022-12-07T13:05:29;15.10;;;4.77;;
13793;SDS011;31160;49.500;7.772;2022-12-07T13:12:56;5.70;;;4.23;;
13793;SDS011;31160;49.500;7.772;2022-12-07T13:21:01;11.70;;;3.93;;
13793;SDS011;31160;49.500;7.772;2022-12-07T13:29:18;7.50;;;4.17;;
13793;SDS011;31160;49.500;7.772;2022-12-07T13:31:50;7.17;;;4.30;;
13793;SDS011;31160;49.500;7.772;2022-12-07T13:34:38;6.77;;;4.20;;
13793;SDS011;31160;49.500;7.772;2022-12-07T13:37:14;11.37;;;4.17;;
13793;SDS011;31160;49.500;7.772;2022-12-07T13:39:56;6.20;;;3.70;;
13793;SDS011;31160;49.500;7.772;2022-12-07T13:42:28;5.17;;;3.00;;
13793;SDS011;31160;49.500;7.772;2022-12-07T13:45:00;5.47;;;3.60;;
13793;SDS011;31160;49.500;7.772;2022-12-07T13:47:53;5.50;;;3.20;;
13793;SDS011;31160;49.500;7.772;2022-12-07T13:50:24;5.20;;;3.50;;
13793;SDS011;31160;49.500;7.772;2022-12-07T13:52:59;4.63;;;3.07;;
13793;SDS011;31160;49.500;7.772;2022-12-07T13:55:27;6.70;;;3.43;;
13793;SDS011;31160;49.500;7.772;2022-12-07T13:57:56;7.83;;;3.80;;
13793;SDS011;31160;49.500;7.772;2022-12-07T14:00:23;8.23;;;3.40;;
13793;SDS011;31160;49.500;7.772;2022-12-07T14:02:56;5.33;;;3.60;;
13793;SDS011;31160;49.500;7.772;2022-12-07T14:05:39;10.80;;;4.37;;
13793;SDS011;31160;49.500;7.772;2022-12-07T14:13:30;8.30;;;4.10;;
13793;SDS011;31160;49.500;7.772;2022-12-07T14:16:02;6.83;;;4.10;;
13793;SDS011;31160;49.500;7.772;2022-12-07T14:18:49;9.60;;;3.43;;
13793;SDS011;31160;49.500;7.772;2022-12-07T14:21:16;6.03;;;3.50;;
13793;SDS011;31160;49.500;7.772;2022-12-07T14:23:45;5.87;;;3.40;;
13793;SDS011;31160;49.500;7.772;2022-12-07T14:26:45;7.57;;;3.53;;
13793;SDS011;31160;49.500;7.772;2022-12-07T14:29:32;7.40;;;3.60;;
13793;SDS011;31160;49.500;7.772;2022-12-07T14:32:19;5.37;;;3.27;;
13793;SDS011;31160;49.500;7.772;2022-12-07T14:34:54;6.47;;;2.97;;
13793;SDS011;31160;49.500;7.772;2022-12-07T14:37:27;8.17;;;3.40;;
13793;SDS011;31160;49.500;7.772;2022-12-07T14:39:55;6.43;;;3.57;;
13793;SDS011;31160;49.500;7.772;2022-12-07T14:42:23;8.27;;;3.70;;
13793;SDS011;31160;49.500;7.772;2022-12-07T14:44:53;10.17;;;4.13;;
13793;SDS011;31160;49.500;7.772;2022-12-07T14:47:20;8.03;;;5.20;;
13793;SDS011;31160;49.500;7.772;2022-12-07T14:50:07;28.07;;;14.83;;
13793;SDS011;31160;49.500;7.772;2022-12-07T14:52:37;7.40;;;4.30;;
13793;SDS011;31160;49.500;7.772;2022-12-07T14:55:26;6.77;;;3.60;;
13793;SDS011;31160;49.500;7.772;2022-12-07T14:57:54;7.37;;;3.73;;
13793;SDS011;31160;49.500;7.772;2022-12-07T15:00:22;5.83;;;3.40;;
13793;SDS011;31160;49.500;7.772;2022-12-07T15:02:50;8.07;;;3.13;;
13793;SDS011;31160;49.500;7.772;2022-12-07T15:05:18;5.80;;;3.40;;
13793;SDS011;31160;49.500;7.772;2022-12-07T15:07:45;12.43;;;3.50;;
13793;SDS011;31160;49.500;7.772;2022-12-07T15:10:16;6.93;;;2.90;;
13793;SDS011;31160;49.500;7.772;2022-12-07T15:12:49;6.23;;;3.17;;
13793;SDS011;31160;49.500;7.772;2022-12-07T15:15:17;5.83;;;3.23;;
13793;SDS011;31160;49.500;7.772;2022-12-07T15:17:43;6.13;;;3.70;;
13793;SDS011;31160;49.500;7.772;2022-12-07T15:20:14;7.13;;;3.83;;
13793;SDS011;31160;49.500;7.772;2022-12-07T15:22:42;4.20;;;2.67;;
13793;SDS011;31160;49.500;7.772;2022-12-07T15:25:12;6.23;;;3.27;;
13793;SDS011;31160;49.500;7.772;2022-12-07T15:27:40;8.63;;;3.23;;
13793;SDS011;31160;49.500;7.772;2022-12-07T15:30:07;7.50;;;3.63;;
13793;SDS011;31160;49.500;7.772;2022-12-07T15:32:34;8.70;;;4.30;;
13793;SDS011;31160;49.500;7.772;2022-12-07T15:35:01;7.20;;;3.83;;
13793;SDS011;31160;49.500;7.772;2022-12-07T15:37:28;5.43;;;3.73;;
13793;SDS011;31160;49.500;7.772;2022-12-07T15:39:55;7.37;;;4.07;;
13793;SDS011;31160;49.500;7.772;2022-12-07T15:42:21;7.23;;;3.90;;
13793;SDS011;31160;49.500;7.772;2022-12-07T15:44:48;6.10;;;4.70;;
13793;SDS011;31160;49.500;7.772;2022-12-07T15:47:33;7.40;;;4.27;;
13793;SDS011;31160;49.500;7.772;2022-12-07T15:50:25;11.87;;;3.73;;
13793;SDS011;31160;49.500;7.772;2022-12-07T15:52:51;7.70;;;4.07;;
13793;SDS011;31160;49.500;7.772;2022-12-07T15:55:18;8.10;;;4.53;;
13793;SDS011;31160;49.500;7.772;2022-12-07T15:57:45;8.77;;;4.53;;
13793;SDS011;31160;49.500;7.772;2022-12-07T16:00:11;9.60;;;4.27;;
13793;SDS011;31160;49.500;7.772;2022-12-07T16:02:39;6.83;;;4.67;;
13793;SDS011;31160;49.500;7.772;2022-12-07T16:05:06;9.13;;;4.73;;
13793;SDS011;31160;49.500;7.772;2022-12-07T16:07:33;8.33;;;5.43;;
13793;SDS011;31160;49.500;7.772;2022-12-07T16:10:00;6.93;;;3.90;;
13793;SDS011;31160;49.500;7.772;2022-12-07T16:12:27;6.90;;;4.10;;
13793;SDS011;31160;49.500;7.772;2022-12-07T16:14:53;7.57;;;4.63;;
13793;SDS011;31160;49.500;7.772;2022-12-07T16:17:20;7.00;;;4.47;;
13793;SDS011;31160;49.500;7.772;2022-12-07T16:19:47;10.57;;;6.00;;
13793;SDS011;31160;49.500;7.772;2022-12-07T16:22:13;8.47;;;4.53;;
13793;SDS011;31160;49.500;7.772;2022-12-07T16:24:40;7.50;;;4.60;;
13793;SDS011;31160;49.500;7.772;2022-12-07T16:27:07;7.70;;;4.10;;
13793;SDS011;31160;49.500;7.772;2022-12-07T16:29:33;9.10;;;4.73;;
13793;SDS011;31160;49.500;7.772;2022-12-07T16:32:01;8.60;;;5.13;;
13793;SDS011;31160;49.500;7.772;2022-12-07T16:34:27;12.50;;;7.17;;
13793;SDS011;31160;49.500;7.772;2022-12-07T16:36:54;15.23;;;6.07;;
13793;SDS011;31160;49.500;7.772;2022-12-07T16:39:31;10.17;;;5.20;;
13793;SDS011;31160;49.500;7.772;2022-12-07T16:41:59;8.80;;;4.80;;
13793;SDS011;31160;49.500;7.772;2022-12-07T16:44:25;11.13;;;5.87;;
13793;SDS011;31160;49.500;7.772;2022-12-07T16:46:52;8.50;;;5.50;;
13793;SDS011;31160;49.500;7.772;2022-12-07T16:49:19;7.43;;;5.00;;
13793;SDS011;31160;49.500;7.772;2022-12-07T16:51:48;9.47;;;6.07;;
13793;SDS011;31160;49.500;7.772;2022-12-07T16:54:36;10.77;;;5.60;;
13793;SDS011;31160;49.500;7.772;2022-12-07T16:57:02;8.83;;;5.93;;
13793;SDS011;31160;49.500;7.772;2022-12-07T16:59:29;9.63;;;5.40;;
13793;SDS011;31160;49.500;7.772;2022-12-07T17:01:56;9.53;;;5.83;;
13793;SDS011;31160;49.500;7.772;2022-12-07T17:04:23;9.77;;;5.93;;
13793;SDS011;31160;49.500;7.772;2022-12-07T17:06:49;9.30;;;6.03;;